Time;durP1;ratioP1;P1;durP2;ratioP2;P2;SDS_P1;SDS_P2;PMS_P1;PMS_P2;Temp;Humidity;BMP_temperature;BMP_pressure;BME280_temperature;BME280_humidity;BME280_pressure;Samples;Min_cycle;Max_cycle;Signal;HPM_P1;HPM_P2
2024/01/19 07:01:25;;;;;;;1.03;1.03;;;0.00;99.90;1.00;101458.00;;;;6194539;22;1434956;-80
2024/01/19 07:03:54;;;;;;;0.30;0.30;;;-0.10;99.90;1.80;101500.00;;;;6247722;22;20137;-78
2024/01/19 07:06:23;;;;;;;2.20;1.40;;;0.00;99.90;1.60;101512.00;;;;6247647;22;20138;-78
2024/01/19 07:08:49;;;;;;;2.00;1.13;;;0.20;99.90;2.10;101528.00;;;;6245249;23;20170;-78
2024/01/19 07:11:20;;;;;;;1.27;1.17;;;0.20;99.90;1.10;101535.00;;;;6248198;22;20489;-78
2024/01/19 07:13:46;;;;;;;0.73;0.73;;;0.00;99.90;0.80;101532.00;;;;6247716;22;20594;-80
2024/01/19 07:16:15;;;;;;;1.23;1.20;;;-0.20;99.90;0.90;101530.00;;;;6246118;23;20145;-78
2024/01/19 07:18:41;;;;;;;1.47;1.37;;;-0.30;99.90;1.40;101536.00;;;;6246376;23;20153;-78
2024/01/19 07:21:07;;;;;;;0.57;0.57;;;-0.20;99.90;1.90;101520.00;;;;6247409;22;20145;-77
2024/01/19 07:23:35;;;;;;;0.40;0.40;;;-0.10;99.90;2.00;101487.00;;;;6245418;22;20157;-77
2024/01/19 07:26:01;;;;;;;1.37;1.27;;;0.10;99.90;1.70;101558.00;;;;6246403;23;20232;-77
2024/01/19 07:28:30;;;;;;;0.70;0.70;;;0.20;99.90;2.10;101545.00;;;;6247541;23;20173;-77
2024/01/19 07:30:56;;;;;;;0.60;0.60;;;0.20;99.90;1.80;101562.00;;;;6246021;23;20590;-76
2024/01/19 07:33:22;;;;;;;1.60;0.90;;;0.10;99.90;2.10;101543.00;;;;6247778;22;20179;-76
2024/01/19 07:35:50;;;;;;;0.40;0.40;;;0.20;99.90;1.70;101553.00;;;;6219538;23;20164;-76
2024/01/19 07:38:18;;;;;;;1.27;1.10;;;0.10;99.90;1.90;101566.00;;;;6246491;22;20152;-76
2024/01/19 07:40:47;;;;;;;0.40;0.40;;;0.20;99.90;1.60;101571.00;;;;6246076;23;20200;-78
2024/01/19 07:43:13;;;;;;;0.50;0.50;;;0.10;99.90;2.10;101583.00;;;;6246294;23;20150;-79
2024/01/19 07:45:39;;;;;;;1.90;1.80;;;0.20;99.90;2.50;101586.00;;;;6245898;23;20150;-78
2024/01/19 07:48:06;;;;;;;0.70;0.70;;;0.30;99.90;3.30;101566.00;;;;6220624;23;20157;-77
2024/01/19 07:50:31;;;;;;;0.40;0.40;;;0.60;99.90;2.40;101584.00;;;;6245702;23;20141;-78
2024/01/19 07:52:57;;;;;;;3.10;2.20;;;0.60;99.90;1.90;101598.00;;;;6247366;22;20218;-78
2024/01/19 07:55:23;;;;;;;0.57;0.57;;;0.40;99.90;1.90;101560.00;;;;6247413;23;20153;-77
2024/01/19 07:57:49;;;;;;;11.33;4.93;;;0.30;99.90;2.30;101595.00;;;;6247267;22;20157;-79
2024/01/19 08:00:18;;;;;;;1.43;1.37;;;0.40;99.90;1.80;101596.00;;;;6245674;23;20177;-78
2024/01/19 08:02:48;;;;;;;0.50;0.50;;;0.20;99.90;1.70;101605.00;;;;6245142;23;20180;-78
2024/01/19 08:05:16;;;;;;;0.43;0.43;;;0.10;99.90;2.20;101604.00;;;;6245216;23;20142;-78
2024/01/19 08:07:52;;;;;;;1.90;0.70;;;0.30;99.90;2.40;101625.00;;;;6244669;23;20578;-81
2024/01/19 08:10:22;;;;;;;0.30;0.30;;;0.40;99.90;2.10;101590.00;;;;6245193;23;20140;-80
2024/01/19 08:12:58;;;;;;;0.50;0.50;;;0.30;99.90;1.90;101595.00;;;;6220392;23;20211;-80
2024/01/19 08:15:24;;;;;;;0.87;0.87;;;0.20;99.90;1.60;101638.00;;;;6246025;23;20220;-80
2024/01/19 08:17:49;;;;;;;0.90;0.90;;;0.10;99.90;1.60;101626.00;;;;6245242;23;20223;-80
2024/01/19 08:20:37;;;;;;;1.23;1.23;;;0.10;99.90;1.70;101633.00;;;;6247236;22;20137;-79
2024/01/19 08:23:03;;;;;;;1.57;1.47;;;0.10;99.90;1.20;101645.00;;;;6245507;23;20161;-79
2024/01/19 08:25:29;;;;;;;1.57;1.47;;;0.00;99.90;1.20;101633.00;;;;6245528;23;20153;-79
2024/01/19 08:27:55;;;;;;;0.60;0.50;;;-0.10;99.90;1.10;101643.00;;;;6245687;23;20219;-80
2024/01/19 08:30:32;;;;;;;0.90;0.90;;;-0.10;99.90;2.00;101658.00;;;;6246787;22;20161;-79
2024/01/19 08:33:04;;;;;;;0.30;0.30;;;0.10;99.90;1.80;101665.00;;;;6245544;23;20217;-79
2024/01/19 08:35:42;;;;;;;0.30;0.30;;;0.30;99.90;2.10;101643.00;;;;6247196;22;20169;-79
2024/01/19 08:38:08;;;;;;;0.63;0.63;;;0.30;99.90;2.00;101669.00;;;;6245505;23;20142;-79
2024/01/19 08:40:34;;;;;;;0.30;0.30;;;0.40;99.90;2.50;101667.00;;;;6244217;23;20493;-79
2024/01/19 08:43:05;;;;;;;0.50;0.50;;;0.50;99.90;2.60;101672.00;;;;6247187;22;20195;-79
2024/01/19 08:45:35;;;;;;;1.03;1.03;;;0.60;99.90;2.00;101676.00;;;;6245059;23;20141;-79
2024/01/19 08:48:04;;;;;;;1.13;0.93;;;0.60;99.90;1.70;101670.00;;;;6245984;22;20158;-78
2024/01/19 08:50:33;;;;;;;0.83;0.83;;;0.40;99.90;1.10;101616.00;;;;6245248;23;20157;-81
2024/01/19 08:53:04;;;;;;;3.03;2.67;;;0.20;99.90;1.40;101651.00;;;;6247034;22;20166;-79
2024/01/19 08:55:39;;;;;;;0.37;0.37;;;0.30;99.90;1.70;101658.00;;;;6245879;23;20138;-79
2024/01/19 08:58:10;;;;;;;2.03;1.93;;;0.40;99.90;1.30;101674.00;;;;6221184;23;20148;-79
2024/01/19 09:00:44;;;;;;;1.80;1.70;;;0.30;99.90;1.80;101667.00;;;;6245385;23;20179;-79
2024/01/19 09:03:18;;;;;;;5.93;2.23;;;0.40;99.90;2.00;101676.00;;;;6220184;23;20158;-79
2024/01/19 09:05:55;;;;;;;3.03;2.83;;;0.60;99.90;2.10;101671.00;;;;6244630;23;20484;-78
2024/01/19 09:08:42;;;;;;;5.53;3.53;;;0.70;99.90;1.90;101658.00;;;;6245289;23;20200;-79
2024/01/19 09:11:19;;;;;;;3.10;2.77;;;0.70;99.90;1.60;101696.00;;;;6245059;23;20162;-80
2024/01/19 09:13:56;;;;;;;1.10;1.03;;;0.70;99.90;2.20;101687.00;;;;6219894;23;20169;-77
2024/01/19 09:16:23;;;;;;;2.17;2.03;;;0.80;99.90;2.20;101697.00;;;;6218996;23;20578;-73
2024/01/19 09:18:54;;;;;;;8.10;5.50;;;0.90;99.90;2.90;101653.00;;;;6245959;22;20218;-73
2024/01/19 09:21:22;;;;;;;2.03;1.80;;;1.20;99.90;3.20;101725.00;;;;6245040;23;20149;-73
2024/01/19 09:23:59;;;;;;;0.30;0.30;;;1.40;99.90;2.60;101736.00;;;;6245495;23;20198;-73
2024/01/19 09:26:44;;;;;;;0.60;0.60;;;1.30;99.90;2.40;101722.00;;;;6244965;23;20153;-73
2024/01/19 09:29:10;;;;;;;0.37;0.37;;;1.10;99.90;2.50;101721.00;;;;6244929;23;20215;-72
2024/01/19 09:31:49;;;;;;;3.40;2.93;;;1.10;99.90;2.40;101736.00;;;;6243839;23;20628;-72
2024/01/19 09:34:15;;;;;;;0.30;0.30;;;1.10;99.90;3.00;101722.00;;;;6245214;23;20149;-72
2024/01/19 09:36:44;;;;;;;15.90;2.97;;;1.30;99.90;3.40;101720.00;;;;6244965;23;20176;-72
2024/01/19 09:39:10;;;;;;;2.10;1.47;;;1.50;99.90;2.80;101691.00;;;;6219889;23;20192;-72
2024/01/19 09:41:47;;;;;;;0.63;0.63;;;1.50;99.90;3.30;101730.00;;;;6219204;23;20169;-73
2024/01/19 09:44:15;;;;;;;0.87;0.87;;;1.60;99.90;3.60;101753.00;;;;6244006;23;20157;-73
2024/01/19 09:47:03;;;;;;;0.80;0.80;;;1.80;99.90;3.00;101746.00;;;;6244673;23;20537;-74
2024/01/19 09:49:47;;;;;;;0.30;0.30;;;1.70;99.90;4.60;101753.00;;;;6244747;23;20141;-74
2024/01/19 09:52:42;;;;;;;0.20;0.20;;;2.20;99.90;6.10;101773.00;;;;6245162;23;20165;-74
2024/01/19 09:55:13;;;;;;;0.30;0.30;;;3.10;99.90;5.70;101747.00;;;;6244447;22;20190;-76
2024/01/19 09:57:47;;;;;;;2.10;1.90;;;3.30;99.90;7.20;101801.00;;;;6218512;23;20192;-77
2024/01/19 10:00:16;;;;;;;0.67;0.67;;;4.10;99.90;8.20;101815.00;;;;6217351;23;20169;-78
2024/01/19 10:02:56;;;;;;;0.60;0.60;;;4.90;99.90;6.50;101825.00;;;;6216739;23;20277;-77
2024/01/19 10:05:30;;;;;;;0.30;0.30;;;4.60;99.90;7.10;101838.00;;;;6218492;23;20162;-77
2024/01/19 10:08:10;;;;;;;1.23;1.23;;;4.80;99.90;6.00;101830.00;;;;6243413;23;20469;-78
2024/01/19 10:10:50;;;;;;;0.93;0.93;;;4.30;99.90;7.00;101821.00;;;;6244773;23;20159;-77
2024/01/19 10:13:25;;;;;;;8.90;2.70;;;4.40;99.90;7.00;101832.00;;;;6218597;23;20175;-77
2024/01/19 10:15:56;;;;;;;0.80;0.80;;;4.40;99.90;5.70;101844.00;;;;6219135;23;20177;-77
2024/01/19 10:18:30;;;;;;;0.90;0.90;;;4.00;99.90;7.90;101808.00;;;;6246070;22;20160;-74
2024/01/19 10:33:30;;;;;;;0.43;0.43;;;3.00;99.90;4.80;101814.00;;;;5090474;27;20575;-77
2024/01/19 10:36:11;;;;;;;1.13;1.13;;;3.20;99.90;6.50;101843.00;;;;5060886;28;20285;-77
2024/01/19 10:38:44;;;;;;;0.73;0.73;;;3.70;99.90;6.50;101848.00;;;;5047547;28;20721;-77
2024/01/19 10:41:24;;;;;;;4.13;2.10;;;4.40;99.90;6.30;101810.00;;;;5042397;28;20206;-77
2024/01/19 10:44:13;;;;;;;2.13;2.00;;;4.40;99.90;6.90;101863.00;;;;5050519;28;20681;-73
2024/01/19 10:46:43;;;;;;;0.20;0.20;;;4.40;99.90;6.60;101870.00;;;;5052271;28;20189;-78
2024/01/19 10:49:19;;;;;;;0.30;0.30;;;4.40;99.90;7.60;101879.00;;;;5035907;28;20243;-78
2024/01/19 10:51:55;;;;;;;0.33;0.33;;;5.00;99.90;7.20;101823.00;;;;5036255;28;20662;-78
2024/01/19 10:54:32;;;;;;;2.10;1.90;;;5.10;99.90;4.90;101874.00;;;;5035629;28;20235;-77
2024/01/19 10:57:44;;;;;;;0.87;0.87;;;4.10;99.90;7.30;101874.00;;;;5052212;28;20280;-82
2024/01/19 11:00:22;;;;;;;4.90;2.50;;;4.40;99.90;5.90;101874.00;;;;5042269;28;20284;-77
2024/01/19 11:03:03;;;;;;;13.37;1.60;;;4.20;99.90;7.30;101877.00;;;;5035247;28;20208;-75
2024/01/19 11:05:32;;;;;;;0.80;0.80;;;4.50;99.90;9.20;101892.00;;;;5069891;28;20188;-76
2024/01/19 11:33:19;;;;;;;2.03;1.33;;;5.90;99.90;7.10;101943.00;;;;5065675;28;20213;-72
2024/01/19 11:35:51;;;;;;;0.30;0.30;;;5.20;99.90;8.40;101919.00;;;;5051315;28;20245;-72
2024/01/19 11:38:38;;;;;;;0.53;0.53;;;5.60;99.90;8.60;101923.00;;;;5051586;28;20203;-72
2024/01/19 11:41:12;;;;;;;1.87;1.73;;;5.80;99.90;9.60;101914.00;;;;5051093;28;20295;-72
2024/01/19 11:43:41;;;;;;;0.10;0.10;;;6.30;99.90;10.50;101940.00;;;;5044611;28;20273;-70
2024/01/19 11:46:46;;;;;;;0.20;0.20;;;7.00;99.90;9.10;101892.00;;;;5029965;28;20212;-70
2024/01/19 11:49:37;;;;;;;1.13;0.80;;;6.50;99.90;10.50;101950.00;;;;5047537;28;20198;-72
2024/01/19 11:52:24;;;;;;;1.17;1.07;;;7.20;99.90;8.80;101976.00;;;;5055432;28;20688;-72
2024/01/19 11:54:55;;;;;;;1.33;1.20;;;6.50;99.90;8.10;101966.00;;;;5037522;28;20196;-71
2024/01/19 11:57:29;;;;;;;0.20;0.20;;;5.90;99.90;7.80;101949.00;;;;5025102;28;20576;-72
2024/01/19 12:00:08;;;;;;;0.20;0.20;;;5.50;99.90;9.80;101937.00;;;;5054254;28;20209;-72
2024/01/19 12:02:40;;;;;;;1.37;1.27;;;6.40;99.90;9.10;101971.00;;;;5030135;28;20226;-69
2024/01/19 12:05:21;;;;;;;0.20;0.20;;;6.60;99.90;9.60;101916.00;;;;5045762;28;20195;-69
2024/01/19 12:08:01;;;;;;;3.30;2.97;;;6.80;99.90;7.80;101902.00;;;;5054198;28;20208;-71
2024/01/19 12:10:35;;;;;;;0.40;0.40;;;5.80;99.90;8.00;101955.00;;;;5033723;28;20193;-69
2024/01/19 12:13:12;;;;;;;0.20;0.20;;;5.90;99.90;8.10;101938.00;;;;5037423;28;20654;-72
2024/01/19 12:15:46;;;;;;;0.20;0.20;;;5.60;99.90;8.30;101942.00;;;;5027153;28;20567;-72
2024/01/19 12:18:21;;;;;;;0.77;0.77;;;6.00;99.90;9.20;101927.00;;;;5052141;28;20642;-69
2024/01/19 12:20:59;;;;;;;0.20;0.20;;;6.30;99.90;9.80;101944.00;;;;5054069;28;20204;-73
2024/01/19 12:23:41;;;;;;;0.50;0.50;;;6.80;99.90;7.90;101897.00;;;;5031652;28;20331;-73
2024/01/19 12:26:25;;;;;;;0.40;0.40;;;5.70;99.90;9.30;101943.00;;;;5024637;28;20197;-73
2024/01/19 12:29:04;;;;;;;0.43;0.43;;;6.50;99.90;10.40;101948.00;;;;5053546;28;20198;-73
2024/01/19 12:31:38;;;;;;;2.07;1.53;;;7.00;99.90;9.60;101957.00;;;;5052848;28;20206;-74
2024/01/19 12:34:18;;;;;;;6.60;2.83;;;7.10;99.90;9.30;101933.00;;;;5052026;28;20704;-73
2024/01/19 12:36:56;;;;;;;0.47;0.47;;;6.90;99.90;9.60;101957.00;;;;5021448;28;20574;-70
2024/01/19 12:39:31;;;;;;;2.50;2.27;;;6.80;99.90;8.30;101951.00;;;;5052062;28;20216;-70
2024/01/19 12:42:08;;;;;;;0.67;0.67;;;6.30;99.90;8.70;101924.00;;;;5053431;28;20359;-70
2024/01/19 12:44:42;;;;;;;3.60;2.93;;;6.10;99.90;7.70;101938.00;;;;5054336;28;20197;-70
2024/01/19 12:47:21;;;;;;;2.33;2.10;;;5.90;99.90;9.10;101925.00;;;;5053160;28;20195;-71
2024/01/19 12:50:01;;;;;;;0.57;0.57;;;6.20;99.90;10.20;101948.00;;;;5051741;28;20197;-70
2024/01/19 12:52:52;;;;;;;0.50;0.50;;;7.00;99.90;9.30;101962.00;;;;5027143;28;20255;-71
2024/01/19 12:55:36;;;;;;;0.43;0.43;;;7.10;99.90;9.00;101928.00;;;;5033498;28;20207;-70
2024/01/19 12:58:10;;;;;;;1.37;1.33;;;6.60;99.90;10.00;101954.00;;;;5027859;28;20198;-72
2024/01/19 13:00:44;;;;;;;1.17;1.17;;;6.80;99.90;9.70;101972.00;;;;5043337;28;20585;-70
2024/01/19 13:03:10;;;;;;;0.20;0.20;;;7.10;99.90;10.30;101964.00;;;;5025670;28;20308;-69
2024/01/19 13:05:47;;;;;;;0.50;0.50;;;7.20;99.90;7.90;101944.00;;;;5051819;28;20264;-72
2024/01/19 13:08:28;;;;;;;1.33;1.33;;;6.50;99.90;7.80;101962.00;;;;5030769;28;20197;-72
2024/01/19 13:11:20;;;;;;;2.20;2.03;;;6.00;99.90;8.00;101942.00;;;;5052736;28;20279;-69
2024/01/19 13:14:07;;;;;;;2.37;1.13;;;6.10;99.90;7.30;101927.00;;;;5052293;28;20651;-72
2024/01/19 13:16:56;;;;;;;1.17;1.07;;;5.70;99.90;7.30;101905.00;;;;5024981;28;20660;-72
2024/01/19 13:19:30;;;;;;;2.37;2.17;;;5.50;99.90;7.70;101927.00;;;;5053404;28;20290;-72
2024/01/19 13:22:10;;;;;;;5.90;2.57;;;5.60;99.90;6.80;101932.00;;;;5035723;28;20285;-72
2024/01/19 13:24:46;;;;;;;2.13;1.87;;;5.40;99.90;6.60;101904.00;;;;5036076;28;20205;-72
2024/01/19 13:27:20;;;;;;;6.50;3.73;;;5.20;99.90;6.70;101877.00;;;;5036694;28;20221;-72
2024/01/19 13:29:54;;;;;;;0.20;0.20;;;5.20;99.90;8.30;101939.00;;;;5046632;28;20288;-72
2024/01/19 14:36:01;;;;;;;0.30;0.30;;;5.20;99.90;7.20;101921.00;;;;5050353;28;20573;-69
2024/01/19 14:38:27;;;;;;;0.40;0.40;;;5.20;99.90;7.90;101963.00;;;;5031600;28;20319;-69
2024/01/19 14:40:55;;;;;;;0.30;0.30;;;5.30;99.90;7.90;101962.00;;;;5048633;28;20184;-69
2024/01/19 14:43:24;;;;;;;3.43;3.20;;;5.30;99.90;7.20;101979.00;;;;5035143;28;20227;-69
2024/01/19 14:45:53;;;;;;;0.97;0.97;;;5.30;99.90;6.90;101964.00;;;;5018965;28;20186;-69
2024/01/19 14:48:21;;;;;;;0.47;0.47;;;5.10;99.90;6.40;101962.00;;;;5051329;28;20185;-69
2024/01/19 14:50:47;;;;;;;1.57;1.47;;;4.90;99.90;6.10;101975.00;;;;5035146;28;20624;-69
2024/01/19 14:53:13;;;;;;;17.47;2.10;;;4.80;99.90;5.80;101958.00;;;;5051233;28;20211;-68
2024/01/19 14:55:41;;;;;;;0.20;0.20;;;4.60;99.90;6.90;101959.00;;;;5035103;28;20284;-69
2024/01/19 14:58:07;;;;;;;0.67;0.67;;;4.70;99.90;7.70;101976.00;;;;5051169;28;20604;-69
2024/01/19 15:00:36;;;;;;;1.20;1.20;;;5.00;99.90;8.50;101983.00;;;;5022775;28;20205;-69
2024/01/19 15:03:03;;;;;;;0.30;0.30;;;5.30;99.90;8.00;101988.00;;;;5051063;28;20222;-69
2024/01/19 15:05:31;;;;;;;0.30;0.30;;;5.30;99.90;8.40;102002.00;;;;5022258;28;20189;-69
2024/01/19 15:08:03;;;;;;;2.10;1.60;;;5.50;99.90;6.50;101983.00;;;;5051192;28;20264;-69
2024/01/19 15:10:29;;;;;;;2.67;2.43;;;5.00;99.90;6.70;101968.00;;;;5034714;28;20240;-69
2024/01/19 15:12:58;;;;;;;0.43;0.43;;;4.80;99.90;7.30;101969.00;;;;5034684;28;20186;-69
2024/01/19 15:15:24;;;;;;;0.30;0.30;;;4.90;99.90;7.80;101985.00;;;;5051273;28;20172;-69
2024/01/19 15:17:50;;;;;;;3.50;1.70;;;5.00;99.90;7.80;101987.00;;;;5034022;28;20187;-69
2024/01/19 15:20:19;;;;;;;0.30;0.30;;;5.20;99.90;7.40;101996.00;;;;5037618;28;20181;-69
2024/01/19 15:22:45;;;;;;;0.30;0.30;;;5.10;99.90;8.30;101987.00;;;;5037863;28;20682;-66
2024/01/19 15:25:11;;;;;;;0.30;0.30;;;5.20;99.90;8.10;102010.00;;;;5055136;28;20249;-69
2024/01/19 15:27:38;;;;;;;0.30;0.30;;;5.30;99.90;8.40;102010.00;;;;5038099;28;20603;-68
2024/01/19 15:30:06;;;;;;;0.30;0.30;;;5.40;99.90;8.50;102002.00;;;;5054800;28;20181;-69
2024/01/19 15:32:34;;;;;;;0.40;0.40;;;5.50;99.90;8.40;102003.00;;;;5038365;28;20206;-75
2024/01/19 15:35:05;;;;;;;0.60;0.60;;;5.50;99.90;7.50;101990.00;;;;5056465;28;20251;-69
2024/01/19 15:37:33;;;;;;;0.70;0.70;;;5.20;99.90;6.30;101984.00;;;;5053306;28;20210;-69
2024/01/19 15:39:59;;;;;;;1.13;1.13;;;4.70;99.90;5.70;101980.00;;;;5038244;28;20203;-69
2024/01/19 15:42:29;;;;;;;0.30;0.30;;;4.40;99.90;7.20;101996.00;;;;5045366;28;20286;-70
2024/01/19 15:52:34;;;;;;;9.63;2.43;;;4.90;99.90;7.30;102026.00;;;;5030222;28;20752;-75
2024/01/19 15:55:14;;;;;;;0.40;0.40;;;4.90;99.90;7.80;102014.00;;;;5016057;28;20267;-74
2024/01/19 15:57:50;;;;;;;0.40;0.40;;;4.90;99.90;7.70;102031.00;;;;5018218;28;20230;-73
2024/01/19 16:00:21;;;;;;;0.30;0.30;;;4.90;99.90;8.00;102021.00;;;;5018290;28;20179;-73
2024/01/19 16:02:52;;;;;;;0.30;0.30;;;5.00;99.90;8.00;102027.00;;;;5035471;28;20704;-73
2024/01/19 16:05:18;;;;;;;0.37;0.37;;;5.00;99.90;7.10;102003.00;;;;5014816;28;20187;-75
2024/01/19 16:07:47;;;;;;;0.30;0.30;;;4.90;99.90;7.00;102018.00;;;;5013197;28;20671;-75
2024/01/19 16:10:29;;;;;;;2.20;2.00;;;4.60;99.90;7.40;101982.00;;;;5014679;28;20198;-75
2024/01/19 16:13:01;;;;;;;0.40;0.40;;;4.60;99.90;6.90;102040.00;;;;5001171;28;20187;-75
2024/01/19 16:15:35;;;;;;;0.50;0.50;;;4.40;99.90;6.70;101996.00;;;;5018170;28;20250;-75
2024/01/19 16:18:09;;;;;;;4.53;4.33;;;4.20;99.90;6.00;102018.00;;;;5031851;28;20220;-75
2024/01/19 16:20:36;;;;;;;0.30;0.30;;;4.00;99.90;6.10;101996.00;;;;5017292;28;20195;-75
2024/01/19 16:23:18;;;;;;;0.37;0.37;;;3.80;99.90;5.60;102037.00;;;;5013857;28;20208;-75
2024/01/19 16:25:44;;;;;;;1.73;1.63;;;3.70;99.90;5.50;102014.00;;;;5001531;28;20183;-74
2024/01/19 16:28:15;;;;;;;0.80;0.70;;;3.50;99.90;4.90;101978.00;;;;5034671;28;20178;-74
2024/01/19 16:30:46;;;;;;;2.73;2.50;;;3.30;99.90;4.40;102048.00;;;;5001032;28;20196;-75
2024/01/19 16:33:18;;;;;;;1.93;1.50;;;3.10;99.90;5.00;102051.00;;;;5017018;28;20183;-76
2024/01/19 16:35:54;;;;;;;2.57;2.37;;;3.10;99.90;4.40;102035.00;;;;5016944;28;20195;-76
2024/01/19 16:38:31;;;;;;;2.07;1.93;;;2.90;99.90;4.20;102048.00;;;;5017043;28;20546;-76
2024/01/19 16:41:09;;;;;;;1.13;1.07;;;2.60;99.90;4.00;102031.00;;;;5011997;28;20187;-74
2024/01/19 16:43:45;;;;;;;1.90;1.80;;;2.50;99.90;4.10;102046.00;;;;5016654;28;20210;-75
2024/01/19 16:46:23;;;;;;;2.40;2.20;;;2.50;99.90;3.50;102051.00;;;;5016273;28;20194;-74
2024/01/19 16:48:57;;;;;;;3.40;3.20;;;2.30;99.90;3.30;102046.00;;;;5015299;28;20545;-74
2024/01/19 16:51:40;;;;;;;3.23;1.60;;;2.10;99.90;3.70;102034.00;;;;5022072;28;20202;-74
2024/01/19 16:54:15;;;;;;;1.20;1.20;;;2.20;99.90;3.50;102025.00;;;;5001022;28;20261;-75
2024/01/19 16:56:51;;;;;;;1.90;1.77;;;2.10;99.90;4.40;102035.00;;;;5017249;28;20287;-74
2024/01/19 16:59:26;;;;;;;1.83;1.50;;;2.20;99.90;4.00;101978.00;;;;5000780;28;20186;-74
2024/01/19 17:02:03;;;;;;;3.33;3.03;;;2.20;99.90;3.60;102060.00;;;;4997178;28;20661;-75
2024/01/19 17:04:36;;;;;;;1.03;1.03;;;2.10;99.90;3.80;102068.00;;;;5016488;28;20186;-74
2024/01/19 17:07:10;;;;;;;2.83;2.60;;;2.00;99.90;3.40;101986.00;;;;5000472;28;20190;-74
2024/01/19 17:09:51;;;;;;;1.50;1.47;;;1.90;99.90;2.90;102045.00;;;;5015501;28;20217;-74
2024/01/19 17:12:28;;;;;;;6.37;5.50;;;1.70;99.90;3.20;101990.00;;;;5012702;28;20704;-74
2024/01/19 17:15:08;;;;;;;9.00;2.03;;;1.60;99.90;3.00;102052.00;;;;5011958;28;20186;-74
2024/01/19 17:17:41;;;;;;;1.53;1.43;;;1.60;99.90;3.20;102069.00;;;;4998495;28;20213;-74
2024/01/19 17:20:12;;;;;;;5.80;4.90;;;1.60;99.90;2.60;102069.00;;;;5016438;28;20193;-75
2024/01/19 17:22:45;;;;;;;4.20;3.80;;;1.50;99.90;2.70;102061.00;;;;5027608;28;20688;-75
2024/01/19 17:25:20;;;;;;;1.80;1.70;;;1.40;99.90;2.70;102002.00;;;;5029264;28;20187;-75
2024/01/19 17:27:54;;;;;;;6.30;4.87;;;1.30;99.90;2.50;102053.00;;;;4996894;28;20188;-74
2024/01/19 17:30:32;;;;;;;3.87;3.13;;;1.20;99.90;2.60;102077.00;;;;5012707;28;20194;-74
2024/01/19 17:33:06;;;;;;;1.87;1.77;;;1.20;99.90;2.70;102071.00;;;;4997026;28;20285;-74
2024/01/19 17:35:40;;;;;;;4.80;3.43;;;1.20;99.90;2.20;102060.00;;;;5000673;28;20222;-74
2024/01/19 17:38:17;;;;;;;3.13;2.93;;;1.10;99.90;2.30;102063.00;;;;5015548;28;20182;-74
2024/01/19 17:40:51;;;;;;;1.73;1.70;;;1.10;99.90;2.20;102066.00;;;;5016004;28;20190;-75
2024/01/19 17:43:28;;;;;;;6.37;4.57;;;1.10;99.90;1.80;102081.00;;;;5012807;28;20220;-74
2024/01/19 17:46:11;;;;;;;2.07;1.93;;;0.90;99.90;2.40;102081.00;;;;5033257;28;20174;-74
2024/01/19 17:48:46;;;;;;;5.30;3.10;;;0.90;99.90;2.50;102025.00;;;;4997312;28;20183;-74
2024/01/19 17:51:23;;;;;;;4.33;3.90;;;1.00;99.90;2.00;102077.00;;;;4995097;28;20195;-74
2024/01/19 17:53:57;;;;;;;3.17;2.60;;;0.90;99.90;2.20;102077.00;;;;5024531;28;20205;-78
2024/01/19 17:56:31;;;;;;;3.90;2.63;;;0.90;99.90;2.00;102045.00;;;;4999011;28;20656;-75
2024/01/19 17:59:06;;;;;;;4.03;3.10;;;0.80;99.90;1.90;102083.00;;;;4999287;28;20270;-74
2024/01/19 18:01:43;;;;;;;1.93;1.83;;;0.80;99.90;1.70;102014.00;;;;4999362;28;20213;-74
2024/01/19 18:04:20;;;;;;;4.20;3.87;;;0.70;99.90;2.10;102066.00;;;;5015714;28;20547;-74
2024/01/19 18:06:52;;;;;;;9.17;3.63;;;0.80;99.90;2.00;102013.00;;;;5033001;28;20186;-74
2024/01/19 18:09:26;;;;;;;3.10;3.00;;;0.70;99.90;1.60;102098.00;;;;5014701;28;20621;-74
2024/01/19 18:11:52;;;;;;;2.83;2.63;;;0.60;99.90;2.10;102096.00;;;;5014088;28;20269;-73
2024/01/19 18:14:29;;;;;;;2.50;2.30;;;0.70;99.90;2.30;101902.00;;;;5015291;28;20274;-73
2024/01/19 18:16:55;;;;;;;3.97;2.33;;;0.70;99.90;2.90;102093.00;;;;4996093;28;20537;-73
2024/01/19 18:19:32;;;;;;;1.43;1.43;;;0.90;99.90;2.60;102126.00;;;;5009048;28;20277;-73
2024/01/19 18:22:04;;;;;;;3.60;2.30;;;0.90;99.90;2.20;102115.00;;;;4985643;28;20203;-73
2024/01/19 18:24:33;;;;;;;5.77;4.93;;;0.80;99.90;2.20;102126.00;;;;5004136;28;20286;-73
2024/01/19 18:27:07;;;;;;;3.87;3.67;;;0.70;99.90;2.30;102056.00;;;;5032816;28;20191;-73
2024/01/19 18:29:48;;;;;;;5.03;4.43;;;0.70;99.90;2.00;102122.00;;;;4996348;28;20197;-73
2024/01/19 18:32:19;;;;;;;1.10;1.07;;;0.60;99.90;2.30;102063.00;;;;5032573;28;20202;-73
2024/01/19 18:34:45;;;;;;;4.10;3.87;;;0.70;99.90;2.50;102134.00;;;;5002969;28;20178;-73
2024/01/19 18:37:15;;;;;;;2.20;2.10;;;0.70;99.90;2.80;102077.00;;;;4999091;28;20244;-73
2024/01/19 18:39:52;;;;;;;4.67;2.13;;;0.70;99.90;2.40;102155.00;;;;5032884;28;20553;-73
2024/01/19 18:42:18;;;;;;;15.03;8.30;;;0.80;99.90;2.20;102147.00;;;;4998638;28;20206;-73
2024/01/19 18:44:58;;;;;;;1.20;1.20;;;0.80;99.90;2.60;102148.00;;;;5032905;28;20239;-73
2024/01/19 18:47:32;;;;;;;6.50;4.43;;;0.70;99.90;1.70;102142.00;;;;4998195;28;20731;-73
2024/01/19 18:50:07;;;;;;;1.60;1.03;;;0.60;99.90;1.80;102070.00;;;;4998519;28;20191;-73
2024/01/19 18:52:34;;;;;;;1.50;1.33;;;0.50;99.90;2.40;102164.00;;;;4998190;28;20209;-73
2024/01/19 18:55:11;;;;;;;1.90;1.70;;;0.60;99.90;1.70;102154.00;;;;5017770;28;20183;-72
2024/01/19 18:57:37;;;;;;;6.37;5.07;;;0.50;99.90;1.30;102140.00;;;;5002468;28;20193;-73
2024/01/19 19:00:06;;;;;;;2.23;2.03;;;0.30;99.90;1.80;102158.00;;;;5019012;28;20190;-73
2024/01/19 19:02:32;;;;;;;4.90;3.83;;;0.30;99.90;1.90;102154.00;;;;5017584;28;20194;-72
2024/01/19 19:04:58;;;;;;;2.67;2.40;;;0.40;99.90;1.50;102159.00;;;;5015627;28;20180;-72
2024/01/19 19:07:30;;;;;;;3.60;1.53;;;0.20;99.90;1.90;102093.00;;;;5002445;28;20189;-72
2024/01/19 19:10:02;;;;;;;3.43;3.23;;;0.20;99.90;1.90;102149.00;;;;5036449;28;20193;-73
2024/01/19 19:12:31;;;;;;;6.90;2.73;;;0.30;99.90;1.10;102173.00;;;;5036103;28;20185;-72
2024/01/19 19:15:21;;;;;;;2.57;2.10;;;0.10;99.90;1.30;102171.00;;;;5018714;28;20191;-73
2024/01/19 19:18:01;;;;;;;2.63;2.53;;;0.10;99.90;1.40;102098.00;;;;5018514;28;20183;-72
2024/01/19 19:20:44;;;;;;;2.83;2.63;;;0.00;99.90;1.40;102152.00;;;;5018873;28;20190;-73
2024/01/19 19:23:16;;;;;;;6.03;3.73;;;0.00;99.90;0.80;102173.00;;;;5002754;28;20206;-72
2024/01/19 19:26:25;;;;;;;1.33;1.33;;;-0.10;99.90;2.00;102182.00;;;;5018807;28;20221;-72
2024/01/19 19:28:57;;;;;;;2.17;1.60;;;0.00;99.90;1.90;102185.00;;;;5003982;28;20234;-74
2024/01/19 19:31:37;;;;;;;0.90;0.90;;;0.20;99.90;1.50;102185.00;;;;5008433;28;20194;-73
2024/01/19 19:34:14;;;;;;;1.77;1.40;;;0.10;99.90;1.30;102147.00;;;;5012577;28;20188;-73
2024/01/19 19:36:43;;;;;;;2.10;2.00;;;0.00;99.90;1.40;102184.00;;;;5011877;28;20325;-73
2024/01/19 19:39:15;;;;;;;3.27;2.97;;;-0.10;99.90;1.00;102189.00;;;;5016198;28;20269;-73
2024/01/19 19:41:50;;;;;;;9.20;5.77;;;-0.20;99.90;1.00;102194.00;;;;4997386;28;20268;-73
2024/01/19 19:44:21;;;;;;;6.60;4.87;;;-0.20;99.90;0.80;102169.00;;;;5011357;28;20400;-73
2024/01/19 19:46:58;;;;;;;2.80;1.97;;;-0.30;99.90;0.90;102207.00;;;;5027503;28;20207;-73
2024/01/19 19:49:36;;;;;;;8.70;4.93;;;-0.30;99.90;0.50;102202.00;;;;5008709;28;20186;-73
2024/01/19 19:52:13;;;;;;;10.57;5.43;;;-0.40;99.90;0.20;102189.00;;;;5011692;28;20543;-73
2024/01/19 19:54:46;;;;;;;5.93;4.27;;;-0.50;99.90;0.20;102188.00;;;;5000374;28;20222;-73
2024/01/19 19:57:18;;;;;;;8.77;6.10;;;-0.60;99.90;0.50;102206.00;;;;5031459;28;20230;-72
2024/01/19 20:00:01;;;;;;;3.53;3.23;;;-0.60;99.90;0.20;102179.00;;;;5011779;28;20679;-73
2024/01/19 20:02:37;;;;;;;14.80;5.80;;;-0.70;99.90;0.10;102186.00;;;;4992808;28;20248;-73
2024/01/19 20:05:04;;;;;;;6.07;3.70;;;-0.70;99.90;0.80;102120.00;;;;4992007;28;20217;-73
2024/01/19 20:07:30;;;;;;;1.50;1.47;;;-0.70;99.90;0.90;102184.00;;;;4995247;28;20274;-73
2024/01/19 20:10:02;;;;;;;4.43;3.80;;;-0.50;99.90;0.50;102183.00;;;;5026753;28;20269;-73
2024/01/19 20:12:34;;;;;;;5.90;4.00;;;-0.60;99.90;0.40;102191.00;;;;5016254;28;20601;-73
2024/01/19 20:15:11;;;;;;;5.37;4.80;;;-0.70;99.90;0.20;102176.00;;;;4999678;28;20186;-73
2024/01/19 20:17:51;;;;;;;2.80;2.57;;;-0.80;99.90;0.40;102171.00;;;;4999313;28;20203;-73